Time;durP1;ratioP1;P1;durP2;ratioP2;P2;SDS_P1;SDS_P2;PMS_P1;PMS_P2;Temp;Humidity;BMP_temperature;BMP_pressure;BME280_temperature;BME280_humidity;BME280_pressure;Samples;Min_cycle;Max_cycle;Signal;HPM_P1;HPM_P2
2022/04/01 00:00:39;;;;;;;19.25;11.25;;;;;;;0.71;75.69;98915.47;5057281;28;20131;-72
2022/04/01 00:03:05;;;;;;;19.13;12.45;;;;;;;0.69;75.84;98913.81;5060608;28;20128;-74
2022/04/01 00:05:30;;;;;;;20.83;11.95;;;;;;;0.70;76.06;98921.63;5058535;28;20068;-72
2022/04/01 00:07:55;;;;;;;18.95;11.95;;;;;;;0.69;76.05;98912.03;5057353;28;20078;-72
2022/04/01 00:10:19;;;;;;;19.73;13.20;;;;;;;0.71;75.92;98918.09;5056823;28;20117;-70
2022/04/01 00:12:46;;;;;;;19.75;13.18;;;;;;;0.71;75.96;98914.59;5059599;28;20040;-75
2022/04/01 00:15:13;;;;;;;15.85;11.38;;;;;;;0.72;75.66;98924.19;5052382;28;20498;-64
2022/04/01 00:17:39;;;;;;;19.42;12.10;;;;;;;0.71;75.91;98911.97;5057458;28;20134;-69
2022/04/01 00:20:04;;;;;;;15.38;10.05;;;;;;;0.69;75.75;98917.28;5057420;28;20051;-70
2022/04/01 00:22:29;;;;;;;14.23;9.82;;;;;;;0.65;75.78;98917.50;5057662;28;20043;-67
2022/04/01 00:24:54;;;;;;;19.23;10.45;;;;;;;0.67;75.78;98919.16;5053160;28;20040;-69
2022/04/01 00:27:19;;;;;;;17.50;11.52;;;;;;;0.61;75.74;98911.53;5045782;28;20039;-69
2022/04/01 00:29:48;;;;;;;16.00;10.50;;;;;;;0.59;75.85;98913.38;5025403;28;20406;-68
2022/04/01 00:32:13;;;;;;;14.95;9.68;;;;;;;0.57;76.05;98916.97;5019291;28;20063;-69
2022/04/01 00:34:37;;;;;;;22.48;12.13;;;;;;;0.55;76.36;98909.19;5028332;28;20039;-69
2022/04/01 00:37:03;;;;;;;19.65;11.60;;;;;;;0.56;75.84;98915.28;5044799;28;20048;-68
2022/04/01 00:39:31;;;;;;;18.52;11.48;;;;;;;0.61;75.54;98908.06;5050086;28;20040;-70
2022/04/01 00:41:58;;;;;;;15.77;10.50;;;;;;;0.49;75.51;98913.81;5055483;28;20047;-68
2022/04/01 00:44:26;;;;;;;14.93;9.30;;;;;;;0.45;76.04;98917.50;5057368;28;20036;-66
2022/04/01 00:46:56;;;;;;;18.77;11.35;;;;;;;0.44;76.14;98921.03;5056277;28;20052;-71
2022/04/01 00:49:23;;;;;;;14.65;9.80;;;;;;;0.42;76.26;98920.25;5042210;28;20080;-72
2022/04/01 00:51:50;;;;;;;17.42;10.25;;;;;;;0.43;76.41;98919.34;5010364;28;20036;-69
2022/04/01 00:54:16;;;;;;;17.95;10.75;;;;;;;0.41;76.24;98927.25;5046282;28;20040;-70
2022/04/01 00:56:41;;;;;;;15.27;9.52;;;;;;;0.43;75.91;98935.06;5044110;28;20051;-71
2022/04/01 00:59:07;;;;;;;19.30;10.65;;;;;;;0.41;76.41;98924.66;5018646;28;20039;-70
2022/04/01 01:01:35;;;;;;;15.35;10.30;;;;;;;0.41;76.41;98927.25;5026855;28;20036;-67
2022/04/01 01:04:05;;;;;;;14.20;9.35;;;;;;;0.44;76.75;98931.53;5029053;28;20041;-69
2022/04/01 01:06:33;;;;;;;15.98;10.30;;;;;;;0.45;77.11;98933.25;5047491;28;20032;-69
2022/04/01 01:08:59;;;;;;;13.73;10.15;;;;;;;0.46;76.72;98927.91;5045883;28;20083;-68
2022/04/01 01:11:25;;;;;;;17.13;10.85;;;;;;;0.48;76.72;98925.22;5046867;28;20127;-67
2022/04/01 01:13:50;;;;;;;17.75;11.23;;;;;;;0.50;76.80;98933.88;5026405;28;20040;-67
2022/04/01 01:16:15;;;;;;;15.65;10.73;;;;;;;0.51;76.31;98951.31;5039511;28;20039;-66
2022/04/01 01:18:41;;;;;;;17.15;11.13;;;;;;;0.51;76.84;98935.59;5037646;28;20106;-69
2022/04/01 01:21:09;;;;;;;15.48;10.93;;;;;;;0.51;76.79;98939.06;5031610;28;20036;-71
2022/04/01 01:23:35;;;;;;;15.57;11.23;;;;;;;0.51;77.12;98932.97;5026243;28;20055;-70
2022/04/01 01:26:00;;;;;;;18.38;10.90;;;;;;;0.52;77.09;98935.53;5045436;28;20048;-72
2022/04/01 01:28:25;;;;;;;20.13;12.38;;;;;;;0.54;77.14;98933.72;5043563;28;20055;-72
2022/04/01 01:30:50;;;;;;;15.30;11.18;;;;;;;0.53;76.94;98937.25;5026473;28;20025;-72
2022/04/01 01:33:15;;;;;;;14.10;10.10;;;;;;;0.55;77.01;98937.19;5018450;28;20835;-70
2022/04/01 01:35:41;;;;;;;15.80;9.98;;;;;;;0.56;76.87;98931.03;5045666;28;20040;-71
2022/04/01 01:38:08;;;;;;;15.73;10.82;;;;;;;0.57;76.75;98943.19;5027913;28;20051;-70
2022/04/01 01:40:33;;;;;;;16.98;11.10;;;;;;;0.58;76.85;98931.78;5011601;28;20182;-71
2022/04/01 01:42:58;;;;;;;16.60;10.65;;;;;;;0.57;76.83;98941.41;5046814;28;20131;-69
2022/04/01 01:45:23;;;;;;;15.95;9.98;;;;;;;0.58;76.97;98947.53;5043623;28;20095;-72
2022/04/01 01:47:48;;;;;;;16.73;11.52;;;;;;;0.59;76.77;98957.09;5043172;28;20072;-69
2022/04/01 01:55:39;;;;;;;14.68;9.13;;;;;;;0.64;76.64;98955.16;5032352;28;20471;-73
2022/04/01 01:58:05;;;;;;;14.55;9.32;;;;;;;0.63;76.35;98948.19;5029474;28;20461;-68
2022/04/01 02:00:31;;;;;;;12.32;8.55;;;;;;;0.61;76.60;98956.13;5025488;28;20050;-71
2022/04/01 02:02:57;;;;;;;16.70;10.10;;;;;;;0.60;76.38;98954.41;5043997;28;20100;-72
2022/04/01 02:05:21;;;;;;;13.15;9.15;;;;;;;0.59;76.35;98962.34;5043515;28;20044;-69
2022/04/01 02:07:47;;;;;;;14.75;9.40;;;;;;;0.58;76.37;98958.88;5046424;28;20035;-71
2022/04/01 02:10:11;;;;;;;11.98;8.02;;;;;;;0.59;76.35;98964.97;5045736;28;20050;-68
2022/04/01 02:12:36;;;;;;;13.18;8.68;;;;;;;0.60;76.59;98964.03;5043603;28;20036;-67
2022/04/01 02:15:02;;;;;;;11.90;7.43;;;;;;;0.61;76.43;98960.50;5020949;28;20055;-68
2022/04/01 02:17:28;;;;;;;14.20;8.50;;;;;;;0.63;76.45;98969.19;5030524;28;20070;-68
2022/04/01 02:19:53;;;;;;;13.00;8.00;;;;;;;0.64;76.16;98968.25;5024227;28;20047;-69
2022/04/01 02:22:17;;;;;;;14.40;8.77;;;;;;;0.65;76.09;98968.19;5042656;28;20040;-68
2022/04/01 02:24:43;;;;;;;11.00;7.70;;;;;;;0.68;75.97;98967.19;5047932;28;20498;-74
2022/04/01 02:27:09;;;;;;;11.85;7.43;;;;;;;0.68;76.16;98964.56;5045716;28;20048;-76
2022/04/01 02:29:34;;;;;;;14.35;7.70;;;;;;;0.70;75.96;98974.09;5071697;28;20050;-73
2022/04/01 02:32:25;;;;;;;14.38;8.75;;;;;;;0.71;75.86;98967.06;5026689;28;20538;-74
2022/04/01 02:34:56;;;;;;;12.63;8.35;;;;;;;0.71;75.65;98961.81;5020826;28;20052;-74
2022/04/01 02:37:25;;;;;;;10.30;7.03;;;;;;;0.70;75.61;98975.84;5018329;28;20105;-74
2022/04/01 02:39:50;;;;;;;13.55;7.93;;;;;;;0.66;75.62;98961.19;5006093;28;20080;-65
2022/04/01 02:42:16;;;;;;;13.70;8.05;;;;;;;0.64;75.71;98966.50;5014267;28;20059;-65
2022/04/01 02:44:41;;;;;;;9.88;7.00;;;;;;;0.63;75.93;98969.19;5022221;28;20051;-70
2022/04/01 02:47:08;;;;;;;10.65;6.53;;;;;;;0.63;75.54;98963.94;5012218;28;20037;-65
2022/04/01 02:49:33;;;;;;;9.60;7.05;;;;;;;0.61;75.70;98966.63;5018485;28;20056;-66
2022/04/01 02:52:00;;;;;;;10.93;6.90;;;;;;;0.63;75.47;98966.56;5017837;28;20039;-66
2022/04/01 02:54:25;;;;;;;10.57;6.65;;;;;;;0.60;75.33;98969.28;5019984;28;20119;-69
2022/04/01 02:56:53;;;;;;;9.77;6.13;;;;;;;0.57;75.38;98970.28;5023807;28;20080;-67
2022/04/01 02:59:18;;;;;;;10.27;7.20;;;;;;;0.56;75.33;98979.09;5014075;28;20033;-66
2022/04/01 03:01:43;;;;;;;10.30;5.97;;;;;;;0.54;75.45;98983.53;5009561;28;20390;-68
2022/04/01 03:04:11;;;;;;;9.40;6.60;;;;;;;0.51;75.21;98970.53;4999916;28;20041;-65
2022/04/01 03:06:44;;;;;;;9.65;6.28;;;;;;;0.49;75.22;98982.00;5015064;28;20112;-67
2022/04/01 03:09:10;;;;;;;8.98;6.80;;;;;;;0.47;75.58;98979.44;5009018;28;20048;-66
2022/04/01 03:11:38;;;;;;;12.63;7.28;;;;;;;0.48;75.19;98982.91;5048082;28;20044;-66
2022/04/01 03:14:16;;;;;;;10.25;6.93;;;;;;;0.46;75.21;98982.97;5050710;28;20044;-67
2022/04/01 03:17:01;;;;;;;10.45;7.43;;;;;;;0.46;75.10;98982.97;5050087;28;20109;-69
2022/04/01 03:19:28;;;;;;;10.10;7.10;;;;;;;0.45;74.99;98978.69;5033957;28;20040;-68
2022/04/01 03:21:52;;;;;;;10.82;6.65;;;;;;;0.47;74.81;98991.69;5020507;28;20052;-62
2022/04/01 03:24:18;;;;;;;12.35;8.02;;;;;;;0.44;75.04;98984.84;5037237;28;20082;-64
2022/04/01 03:26:42;;;;;;;12.35;8.07;;;;;;;0.46;75.00;98987.38;5022860;28;20076;-67
2022/04/01 03:29:10;;;;;;;12.25;7.40;;;;;;;0.43;74.91;98993.59;5026681;28;20644;-63
2022/04/01 03:31:36;;;;;;;10.35;7.00;;;;;;;0.43;75.06;98982.25;5020482;28;20056;-65
2022/04/01 03:34:05;;;;;;;11.88;7.18;;;;;;;0.42;75.27;98984.03;5041558;28;20044;-64
2022/04/01 03:36:31;;;;;;;11.35;6.90;;;;;;;0.44;75.12;98983.97;5042514;28;20044;-64
2022/04/01 03:38:55;;;;;;;9.95;7.25;;;;;;;0.47;75.16;98978.59;5040959;28;20043;-65
2022/04/01 03:41:29;;;;;;;7.72;5.38;;;;;;;0.49;74.71;98984.63;5034798;28;20067;-63
2022/04/01 03:43:55;;;;;;;7.95;5.80;;;;;;;0.47;74.93;98983.81;5019746;28;20512;-64
2022/04/01 03:46:24;;;;;;;10.70;6.63;;;;;;;0.45;75.03;98985.69;5003150;28;20503;-65
2022/04/01 03:49:03;;;;;;;10.68;7.10;;;;;;;0.53;74.80;98996.69;5019691;28;20040;-63
2022/04/01 03:51:30;;;;;;;8.43;5.95;;;;;;;0.50;74.32;98994.19;4986478;28;20036;-63
2022/04/01 03:54:00;;;;;;;11.07;7.05;;;;;;;0.40;74.64;98988.47;5035868;28;20108;-65
2022/04/01 03:56:56;;;;;;;;;;;;;;;0.49;74.65;98992.50;5056951;28;20086;-64
2022/04/01 03:59:41;;;;;;;9.68;6.13;;;;;;;0.40;74.69;98990.25;5056532;28;19916;-63
2022/04/01 04:02:21;;;;;;;9.80;6.28;;;;;;;0.38;75.01;99005.19;5058059;28;20122;-64
2022/04/01 04:04:48;;;;;;;11.45;6.70;;;;;;;0.38;74.80;98995.56;5022607;28;20063;-64
2022/04/01 04:07:13;;;;;;;13.95;8.15;;;;;;;0.38;74.82;98997.31;5022758;28;20080;-64
2022/04/01 04:09:44;;;;;;;10.15;7.10;;;;;;;0.40;75.00;98992.88;5040341;28;20090;-64
2022/04/01 04:12:12;;;;;;;11.13;7.43;;;;;;;0.34;74.85;99000.06;5058222;28;20126;-65
2022/04/01 04:14:41;;;;;;;11.38;7.05;;;;;;;0.29;74.98;98991.53;5040367;28;20105;-63
2022/04/01 04:17:16;;;;;;;12.85;7.78;;;;;;;0.29;75.19;98995.94;5022648;28;20044;-64
2022/04/01 04:19:56;;;;;;;10.65;6.47;;;;;;;0.35;74.79;98993.03;5039205;28;20048;-63
2022/04/01 04:22:38;;;;;;;10.55;7.00;;;;;;;0.29;74.91;98999.41;5038957;28;20040;-63
2022/04/01 04:25:10;;;;;;;8.70;6.15;;;;;;;0.22;75.00;99005.81;5039052;28;20136;-62
2022/04/01 04:27:40;;;;;;;10.95;7.07;;;;;;;0.22;75.16;99002.34;5038947;28;20051;-63
2022/04/01 04:30:09;;;;;;;14.90;8.23;;;;;;;0.22;74.79;99008.44;5056922;28;20047;-63
2022/04/01 04:32:56;;;;;;;12.70;7.18;;;;;;;0.19;75.02;99010.31;5039234;28;20122;-67
2022/04/01 04:35:28;;;;;;;10.23;6.82;;;;;;;0.16;75.02;99020.91;5038382;28;20040;-63
2022/04/01 04:37:56;;;;;;;10.77;7.10;;;;;;;0.13;75.12;99018.41;5035495;28;20052;-63
2022/04/01 04:40:21;;;;;;;13.18;8.55;;;;;;;0.20;74.61;99022.50;5018740;28;20051;-63
2022/04/01 04:42:55;;;;;;;13.30;7.82;;;;;;;0.14;74.53;99028.84;5018745;28;20421;-63
2022/04/01 04:45:22;;;;;;;12.90;7.40;;;;;;;0.09;74.99;99024.69;5002511;28;20044;-63
2022/04/01 04:47:52;;;;;;;10.05;6.43;;;;;;;0.08;75.08;99026.47;5018812;28;20052;-64
2022/04/01 04:50:18;;;;;;;12.13;7.80;;;;;;;0.08;75.39;99030.84;5018772;28;20040;-63
2022/04/01 04:52:50;;;;;;;9.43;6.55;;;;;;;0.09;75.61;99030.81;5018635;28;20159;-64
2022/04/01 04:55:19;;;;;;;11.98;7.18;;;;;;;0.11;75.36;99030.75;5018599;28;20479;-65
2022/04/01 04:58:10;;;;;;;11.15;6.97;;;;;;;0.14;75.20;99031.47;5033164;28;20465;-64
2022/04/01 05:00:45;;;;;;;10.23;6.32;;;;;;;0.16;74.96;99036.66;5018487;28;20052;-65
2022/04/01 05:03:48;;;;;;;11.18;6.13;;;;;;;0.13;75.00;99039.38;5025227;28;20502;-64
2022/04/01 05:06:22;;;;;;;9.85;5.90;;;;;;;0.15;75.22;99038.41;4937705;28;20054;-64
2022/04/01 05:09:25;;;;;;;9.25;6.22;;;;;;;0.25;74.55;99042.38;4935486;28;20134;-63
2022/04/01 05:12:21;;;;;;;11.32;6.85;;;;;;;0.22;74.61;99046.91;4919655;28;20058;-63
2022/04/01 05:15:19;;;;;;;9.95;5.95;;;;;;;0.19;74.71;99047.88;4862587;29;20066;-64
2022/04/01 05:17:44;;;;;;;9.52;5.95;;;;;;;0.20;74.84;99044.34;4862872;29;20186;-65
2022/04/01 05:20:17;;;;;;;12.02;5.63;;;;;;;0.28;74.94;99058.00;4862463;29;20143;-65
2022/04/01 05:23:11;;;;;;;9.02;6.28;;;;;;;0.25;74.97;99047.63;4859570;29;20255;-63
2022/04/01 05:25:49;;;;;;;9.25;5.95;;;;;;;0.27;75.24;99053.66;4859592;29;20053;-64
2022/04/01 05:28:40;;;;;;;8.65;6.13;;;;;;;0.29;74.88;99049.22;4870054;29;20067;-65
2022/04/01 05:31:29;;;;;;;11.25;5.75;;;;;;;0.37;74.74;99054.16;4878660;29;20044;-64
2022/04/01 05:34:13;;;;;;;12.45;6.10;;;;;;;0.43;74.54;99048.69;4878609;29;20499;-63
2022/04/01 05:36:37;;;;;;;9.57;6.47;;;;;;;0.38;74.13;99041.88;4878362;29;20111;-65
2022/04/01 05:39:04;;;;;;;8.38;5.68;;;;;;;0.36;74.27;99048.03;4878418;29;20095;-64
2022/04/01 05:41:30;;;;;;;10.75;7.03;;;;;;;0.39;74.27;99047.06;4892200;28;20047;-64
2022/04/01 05:43:57;;;;;;;10.20;6.43;;;;;;;0.42;74.47;99052.22;4916123;29;20523;-64
2022/04/01 05:46:29;;;;;;;8.82;5.85;;;;;;;0.44;74.35;99046.91;4931366;28;20058;-64
2022/04/01 05:49:00;;;;;;;7.85;4.45;;;;;;;0.55;73.79;99061.28;4921960;28;20046;-64
2022/04/01 05:51:29;;;;;;;12.32;7.45;;;;;;;0.45;73.82;99048.63;4970818;28;20468;-64
2022/04/01 05:53:55;;;;;;;10.98;6.93;;;;;;;0.37;73.82;99056.75;5037537;28;20039;-64
2022/04/01 05:56:21;;;;;;;13.73;7.18;;;;;;;0.34;73.93;99052.50;5020454;28;20040;-65
2022/04/01 05:58:46;;;;;;;11.27;6.70;;;;;;;0.33;73.98;99045.56;5037333;28;20046;-65
2022/04/01 06:01:56;;;;;;;14.23;7.03;;;;;;;0.31;74.21;99059.66;5037106;28;20040;-65
2022/04/01 06:04:40;;;;;;;10.73;6.28;;;;;;;0.38;73.94;99055.00;5020650;28;20121;-65
2022/04/01 06:07:46;;;;;;;8.20;5.45;;;;;;;0.47;73.28;99055.47;5037375;28;20150;-63
2022/04/01 06:10:26;;;;;;;8.88;5.50;;;;;;;0.28;73.52;99070.25;5037340;28;20048;-66
2022/04/01 06:13:13;;;;;;;10.43;6.95;;;;;;;0.25;73.85;99065.97;5038870;28;20074;-63
2022/04/01 06:16:31;;;;;;;6.18;4.43;;;;;;;0.41;73.65;99062.75;4993726;28;20056;-63
2022/04/01 06:19:34;;;;;;;7.55;5.20;;;;;;;0.41;73.34;99053.13;4993098;28;20538;-74
2022/04/01 06:22:05;;;;;;;8.15;5.45;;;;;;;0.31;73.49;99057.88;4977699;28;20049;-71
2022/04/01 06:25:10;;;;;;;10.35;6.93;;;;;;;0.24;73.59;99066.03;4977512;28;20041;-72
2022/04/01 06:27:47;;;;;;;13.15;7.80;;;;;;;0.34;73.44;99057.72;4976957;28;20167;-74
2022/04/01 06:30:19;;;;;;;10.95;7.30;;;;;;;0.23;73.82;99049.44;4977326;28;20051;-71
2022/04/01 06:32:54;;;;;;;12.20;7.45;;;;;;;0.18;74.10;99051.41;4978074;28;20068;-71
2022/04/01 06:35:38;;;;;;;11.43;6.18;;;;;;;0.27;74.05;99045.78;4988304;28;20111;-71
2022/04/01 06:38:20;;;;;;;11.85;7.85;;;;;;;0.38;74.08;99053.22;4993740;28;20148;-70
2022/04/01 06:40:58;;;;;;;11.60;6.15;;;;;;;0.45;74.01;99061.72;4994314;28;20496;-71
2022/04/01 06:43:32;;;;;;;10.75;6.03;;;;;;;0.53;73.47;99057.03;4994464;28;20049;-73
2022/04/01 06:46:18;;;;;;;10.48;5.80;;;;;;;0.55;73.93;99055.19;4983636;28;20060;-73
2022/04/01 06:48:51;;;;;;;9.30;5.72;;;;;;;0.67;73.74;99050.31;5011952;28;20157;-74
2022/04/01 06:51:39;;;;;;;11.00;6.22;;;;;;;0.90;73.40;99049.34;5021479;28;20054;-64
2022/04/01 06:54:22;;;;;;;10.15;6.40;;;;;;;0.93;72.80;99054.47;5038560;28;20044;-64
2022/04/01 06:57:06;;;;;;;10.40;6.93;;;;;;;1.00;72.96;99055.94;5039165;28;20040;-66
2022/04/01 06:59:51;;;;;;;12.60;7.53;;;;;;;1.11;72.70;99049.38;5036612;28;20045;-64
2022/04/01 07:02:16;;;;;;;8.30;5.40;;;;;;;1.18;72.62;99058.66;5050968;28;20048;-64
2022/04/01 07:04:41;;;;;;;10.13;6.40;;;;;;;1.32;71.07;99046.66;5034775;28;20047;-63
2022/04/01 07:07:06;;;;;;;10.32;6.88;;;;;;;1.20;71.35;99043.72;5035822;28;20530;-64
2022/04/01 07:09:31;;;;;;;8.80;6.07;;;;;;;1.17;71.22;99054.34;5018051;28;20043;-64
2022/04/01 07:12:01;;;;;;;8.88;6.53;;;;;;;1.19;71.46;99050.72;5034604;28;20053;-64
2022/04/01 07:14:28;;;;;;;11.68;6.88;;;;;;;1.23;71.37;99049.69;5035894;28;20406;-73
2022/04/01 07:16:56;;;;;;;7.18;5.22;;;;;;;1.31;71.38;99062.47;5035666;28;20051;-74
2022/04/01 07:19:21;;;;;;;10.15;5.30;;;;;;;1.32;70.97;99056.31;5037563;28;20090;-75
2022/04/01 07:21:46;;;;;;;6.72;4.88;;;;;;;1.31;69.77;99057.22;5040029;28;20125;-74
2022/04/01 07:24:11;;;;;;;10.30;6.25;;;;;;;1.19;69.39;99049.88;5036777;28;20037;-74
2022/04/01 07:26:35;;;;;;;13.73;7.20;;;;;;;1.03;70.02;99052.28;5034735;28;20414;-75
2022/04/01 07:29:01;;;;;;;9.90;6.80;;;;;;;0.93;70.65;99051.84;5051304;28;20418;-74
2022/04/01 07:34:10;;;;;;;10.57;7.40;;;;;;;1.12;70.96;99048.44;5038742;28;20053;-73
2022/04/01 07:36:36;;;;;;;8.05;5.97;;;;;;;1.21;70.74;99054.16;5039153;28;20054;-72
2022/04/01 07:39:01;;;;;;;10.23;6.28;;;;;;;1.22;70.27;99062.88;5039867;28;20044;-73
2022/04/01 07:41:29;;;;;;;8.88;5.65;;;;;;;1.27;70.22;99059.13;5029723;28;20106;-70
2022/04/01 07:43:54;;;;;;;8.40;5.60;;;;;;;1.25;70.24;99049.59;5017819;28;20045;-72
2022/04/01 07:46:18;;;;;;;11.10;5.97;;;;;;;1.34;69.76;99064.97;5018393;28;20131;-73
2022/04/01 07:48:43;;;;;;;9.93;6.32;;;;;;;1.37;68.61;99057.81;5034160;28;20063;-71
2022/04/01 07:51:08;;;;;;;9.82;5.93;;;;;;;1.45;67.83;99060.97;5017791;28;20037;-71
2022/04/01 07:53:32;;;;;;;5.18;4.28;;;;;;;1.33;68.63;99065.91;5016813;28;20053;-73
2022/04/01 07:55:57;;;;;;;8.63;6.10;;;;;;;1.21;68.39;99059.41;5017668;28;20041;-71
2022/04/01 07:58:22;;;;;;;9.48;6.30;;;;;;;1.12;68.92;99072.94;5018189;28;20528;-71
2022/04/01 08:00:47;;;;;;;9.13;6.53;;;;;;;1.09;69.06;99068.66;5029870;28;20056;-72
2022/04/01 08:03:11;;;;;;;12.02;6.57;;;;;;;1.13;69.13;99056.22;5033077;28;20096;-70
2022/04/01 08:05:36;;;;;;;5.78;3.78;;;;;;;1.27;69.42;99056.50;5047121;28;20411;-70
2022/04/01 08:08:01;;;;;;;10.43;6.95;;;;;;;1.25;68.84;99052.22;5027745;28;20645;-64
2022/04/01 08:10:26;;;;;;;10.98;6.88;;;;;;;1.26;69.44;99064.44;5033828;28;20041;-65
2022/04/01 08:12:50;;;;;;;11.48;7.45;;;;;;;1.36;68.71;99055.25;5017470;28;20059;-63
2022/04/01 08:15:15;;;;;;;7.07;5.10;;;;;;;1.52;68.15;99058.91;5032684;28;20052;-64
2022/04/01 08:17:40;;;;;;;10.55;7.25;;;;;;;1.47;67.19;99068.75;5032543;28;20493;-65
2022/04/01 08:20:05;;;;;;;11.02;7.72;;;;;;;1.45;67.87;99060.97;5017418;28;20076;-64
2022/04/01 08:22:30;;;;;;;10.13;6.65;;;;;;;1.53;67.66;99058.00;5014655;28;20522;-65
2022/04/01 08:24:55;;;;;;;12.25;6.47;;;;;;;1.54;67.93;99058.84;5015067;28;20491;-66
2022/04/01 08:27:20;;;;;;;12.73;7.05;;;;;;;1.72;67.67;99065.91;5015262;28;20053;-65
2022/04/01 08:29:44;;;;;;;9.85;6.22;;;;;;;1.85;67.07;99059.19;4998919;28;20041;-65
2022/04/01 08:32:09;;;;;;;10.02;6.00;;;;;;;2.03;66.34;99062.75;5015394;28;20056;-65
2022/04/01 08:34:34;;;;;;;8.10;5.40;;;;;;;2.22;66.23;99068.00;5015347;28;20407;-64
2022/04/01 08:36:59;;;;;;;7.70;5.47;;;;;;;2.32;65.89;99058.75;5015433;28;20056;-63
2022/04/01 08:39:24;;;;;;;9.98;5.65;;;;;;;2.41;65.46;99056.53;5015628;28;20044;-63
2022/04/01 08:41:49;;;;;;;7.30;4.97;;;;;;;2.52;65.23;99063.91;5025629;28;20105;-71
2022/04/01 08:44:14;;;;;;;9.90;7.15;;;;;;;2.55;64.50;99062.00;5034955;28;20040;-72
2022/04/01 08:46:39;;;;;;;9.52;5.88;;;;;;;2.52;63.88;99062.13;5034791;28;20079;-71
2022/04/01 08:49:06;;;;;;;11.45;5.10;;;;;;;2.56;63.80;99076.00;5034491;28;20083;-72
2022/04/01 08:51:32;;;;;;;8.85;5.78;;;;;;;2.55;63.93;99059.38;5017992;28;20391;-71
2022/04/01 08:53:57;;;;;;;8.93;5.40;;;;;;;2.70;63.37;99065.66;5032021;28;20084;-71
2022/04/01 08:56:21;;;;;;;9.40;5.45;;;;;;;2.72;61.04;99066.41;5015819;28;20067;-75
2022/04/01 08:58:47;;;;;;;6.75;4.07;;;;;;;2.67;62.24;99076.34;5016538;28;20045;-72
2022/04/01 09:01:13;;;;;;;8.75;5.32;;;;;;;2.67;61.04;99070.22;4999354;28;20557;-72
2022/04/01 09:03:38;;;;;;;8.27;5.30;;;;;;;2.55;60.44;99066.41;5016800;28;20044;-71
2022/04/01 09:06:05;;;;;;;9.65;6.00;;;;;;;2.44;61.18;99080.06;5016567;28;20044;-72
2022/04/01 09:08:35;;;;;;;7.47;5.65;;;;;;;2.45;62.08;99081.78;5017174;28;20043;-74
2022/04/01 09:11:21;;;;;;;10.07;5.18;;;;;;;2.61;61.53;99079.25;5017420;28;20056;-73
2022/04/01 09:13:50;;;;;;;11.90;5.85;;;;;;;2.74;62.01;99079.50;5016770;28;20045;-64
2022/04/01 09:16:22;;;;;;;8.18;5.50;;;;;;;2.86;62.22;99077.13;5015218;28;20411;-64
2022/04/01 09:18:47;;;;;;;9.15;6.10;;;;;;;2.97;60.98;99073.13;5016824;28;20461;-64
2022/04/01 09:21:13;;;;;;;8.65;5.00;;;;;;;2.91;61.56;99076.91;5015300;28;20131;-63
2022/04/01 09:23:40;;;;;;;8.25;5.88;;;;;;;2.89;60.88;99071.72;5016234;28;20049;-64
2022/04/01 09:26:05;;;;;;;7.43;4.70;;;;;;;2.88;61.29;99077.91;5016049;28;20528;-64
2022/04/01 09:28:38;;;;;;;7.47;5.28;;;;;;;2.97;60.96;99073.97;4998279;28;20408;-64
2022/04/01 09:31:06;;;;;;;10.27;5.18;;;;;;;2.95;61.15;99080.22;5031985;28;20511;-64
2022/04/01 09:33:52;;;;;;;10.70;6.28;;;;;;;3.05;61.28;99077.06;5016366;28;20053;-65
2022/04/01 09:36:21;;;;;;;6.50;3.78;;;;;;;3.15;61.15;99073.06;5016363;28;20044;-63
2022/04/01 09:39:23;;;;;;;8.82;6.22;;;;;;;3.27;59.81;99066.31;5031129;28;20099;-64
2022/04/01 09:41:52;;;;;;;9.07;5.10;;;;;;;3.32;60.09;99068.72;4987493;28;20080;-65
2022/04/01 09:44:20;;;;;;;6.90;4.85;;;;;;;3.51;60.01;99065.03;5013433;28;20044;-65
2022/04/01 09:46:48;;;;;;;8.27;4.85;;;;;;;3.80;59.30;99052.97;5013437;28;20377;-65
2022/04/01 09:49:28;;;;;;;8.20;5.55;;;;;;;4.16;58.57;99051.94;5013413;28;20147;-63
2022/04/01 09:51:53;;;;;;;10.10;6.45;;;;;;;4.58;58.03;99049.53;5013420;28;20527;-64
2022/04/01 09:54:17;;;;;;;8.32;5.32;;;;;;;4.88;57.13;99046.06;5014187;28;20486;-65
2022/04/01 09:56:45;;;;;;;6.97;5.03;;;;;;;5.13;56.42;99040.22;5014018;28;20057;-66
2022/04/01 09:59:13;;;;;;;7.22;4.80;;;;;;;5.25;56.06;99042.13;4998057;28;20419;-65
2022/04/01 10:01:39;;;;;;;6.97;4.53;;;;;;;5.24;55.61;99038.63;5013512;28;20223;-65
2022/04/01 10:04:05;;;;;;;6.15;4.47;;;;;;;5.14;55.50;99034.84;5013493;28;20048;-64
2022/04/01 10:06:32;;;;;;;9.48;5.70;;;;;;;5.04;55.39;99039.81;5013499;28;20048;-63
2022/04/01 10:09:04;;;;;;;7.47;4.90;;;;;;;4.94;55.92;99030.72;5013003;28;20214;-63
2022/04/01 10:11:31;;;;;;;7.47;4.72;;;;;;;5.06;55.62;99030.00;5013049;28;20057;-66
2022/04/01 10:14:01;;;;;;;7.50;4.95;;;;;;;5.27;55.33;99032.31;4996030;28;20041;-65
2022/04/01 10:16:26;;;;;;;7.30;4.57;;;;;;;5.55;54.43;99031.50;5013102;28;20037;-65
2022/04/01 10:18:53;;;;;;;10.65;4.90;;;;;;;5.74;53.98;99035.59;5024609;28;20064;-64
2022/04/01 10:21:19;;;;;;;6.03;4.38;;;;;;;5.71;52.81;99027.84;5035429;28;20557;-65
2022/04/01 10:23:59;;;;;;;6.75;4.55;;;;;;;5.70;52.86;99018.19;5035138;28;20045;-66
2022/04/01 10:26:32;;;;;;;7.00;4.97;;;;;;;5.52;52.85;99015.84;5034032;28;20533;-64
2022/04/01 10:28:58;;;;;;;6.57;4.07;;;;;;;5.55;52.85;99011.19;5035104;28;20036;-64
2022/04/01 10:31:25;;;;;;;7.38;4.60;;;;;;;5.80;51.63;99013.19;5035286;28;20048;-67
2022/04/01 10:33:50;;;;;;;7.07;4.57;;;;;;;5.67;50.47;99017.53;5034838;28;20036;-66
2022/04/01 10:36:37;;;;;;;6.85;4.10;;;;;;;5.45;51.35;99020.63;5033319;28;20047;-67
2022/04/01 10:39:06;;;;;;;8.68;4.57;;;;;;;5.43;51.93;99002.22;5033813;28;20491;-63
2022/04/01 10:41:31;;;;;;;7.40;4.82;;;;;;;5.29;51.88;99010.16;5040361;28;20091;-65
2022/04/01 10:43:56;;;;;;;7.47;4.80;;;;;;;5.28;52.02;98995.25;5014418;28;20070;-65
2022/04/01 10:46:21;;;;;;;6.88;4.90;;;;;;;5.31;51.23;98999.47;5014268;28;20045;-65
2022/04/01 10:52:19;;;;;;;13.10;6.15;;;;;;;5.49;51.88;98990.44;5013331;28;20500;-66
2022/04/01 10:54:46;;;;;;;8.02;4.72;;;;;;;5.39;51.89;98979.59;5014974;28;20084;-64
2022/04/01 10:57:25;;;;;;;9.00;4.80;;;;;;;5.62;52.17;98987.91;5013399;28;20485;-65
2022/04/01 10:59:51;;;;;;;7.53;5.05;;;;;;;5.76;51.61;98972.84;5014437;28;20045;-69
2022/04/01 11:02:21;;;;;;;9.13;5.10;;;;;;;5.89;51.64;98983.53;5012119;28;20044;-65
2022/04/01 11:04:47;;;;;;;9.52;5.47;;;;;;;5.83;50.92;98971.53;5015638;28;20040;-65
2022/04/01 11:07:29;;;;;;;5.32;4.07;;;;;;;5.87;52.28;98980.09;5017580;28;20119;-65
2022/04/01 11:10:00;;;;;;;10.23;5.05;;;;;;;5.68;51.72;98963.69;5013690;28;20194;-65
2022/04/01 11:12:34;;;;;;;8.23;4.55;;;;;;;5.57;51.26;98960.88;5017125;28;20040;-65
2022/04/01 11:14:59;;;;;;;8.38;5.10;;;;;;;5.51;50.94;98961.25;5029619;28;20056;-66
2022/04/01 11:17:27;;;;;;;5.25;3.40;;;;;;;5.69;51.33;98955.69;5019879;28;20045;-65
2022/04/01 11:20:04;;;;;;;7.60;4.22;;;;;;;5.63;50.61;98956.06;5019414;28;20048;-65
2022/04/01 11:22:36;;;;;;;5.40;4.30;;;;;;;5.60;50.41;98953.59;5019983;28;20044;-63
2022/04/01 11:25:02;;;;;;;8.88;5.28;;;;;;;5.65;50.50;98943.56;5018309;28;20040;-64
2022/04/01 11:27:28;;;;;;;7.28;4.95;;;;;;;5.78;50.29;98944.50;5034360;28;20033;-62
2022/04/01 11:30:13;;;;;;;5.47;4.47;;;;;;;5.89;50.45;98933.28;5019631;28;20055;-63
2022/04/01 11:32:39;;;;;;;4.18;3.72;;;;;;;5.97;49.41;98933.66;5020755;28;20051;-67
2022/04/01 11:35:10;;;;;;;8.85;5.15;;;;;;;5.74;48.61;98918.38;5024661;28;20059;-65
2022/04/01 11:37:37;;;;;;;11.05;4.82;;;;;;;5.59;49.29;98927.25;5018276;28;20033;-66
2022/04/01 11:40:09;;;;;;;6.43;4.30;;;;;;;5.63;49.43;98915.56;5024935;28;20049;-67
2022/04/01 11:42:49;;;;;;;7.25;4.25;;;;;;;5.68;49.80;98911.66;5050691;28;20053;-64
2022/04/01 11:45:14;;;;;;;7.22;4.70;;;;;;;5.64;49.26;98920.75;5043198;28;20178;-66
2022/04/01 11:47:39;;;;;;;6.15;3.70;;;;;;;5.62;49.50;98906.78;5040634;28;20044;-64
2022/04/01 11:50:15;;;;;;;7.90;4.18;;;;;;;5.59;49.76;98900.81;5038872;28;20045;-66
2022/04/01 11:52:45;;;;;;;7.80;3.97;;;;;;;5.54;49.04;98897.59;5056293;28;20127;-67
2022/04/01 11:55:21;;;;;;;4.97;3.85;;;;;;;5.48;49.54;98891.78;5065782;28;20118;-66
2022/04/01 11:57:47;;;;;;;4.72;3.63;;;;;;;5.39;49.13;98895.00;5041339;28;20470;-65
2022/04/01 12:00:13;;;;;;;8.75;4.38;;;;;;;5.33;49.31;98898.00;5030843;28;20043;-68
2022/04/01 12:02:39;;;;;;;8.15;4.53;;;;;;;5.38;48.74;98890.66;5031568;28;20066;-65